Arabi, Georgia
Current Conditions -  °F | °C
As of 10:55 AM on Monday 24 Nov 2014 (Local Time) from KCKF Reporting Station
Overcast Overcast  
Wind Chill: 72°   Ceiling: 700
Heat Index: 72°   Visibility: 7mi
Dew Point: 68°   Wind: 8mph
Humidity: 89%   Direction: 230°SW
Pressure: 29.88"   Gusts: NA
Location:  31.83°N, 83.74°W
Report Text: KCKF 241555Z AUTO 23007KT 7SM BKN007 OVC013 22/20 A2988 RMK AO2 LTG DSNT SW T02200202
Loading
Personal Weather Stations






























Interactive Weather Map New forecast layout! Learn more

10-Day Weather Forecast

Advertisements
Track Severe Weather on mobile